Time;durP1;ratioP1;P1;durP2;ratioP2;P2;SDS_P1;SDS_P2;PMS_P1;PMS_P2;Temp;Humidity;BMP_temperature;BMP_pressure;BME280_temperature;BME280_humidity;BME280_pressure;Samples;Min_cycle;Max_cycle;Signal;HPM_P1;HPM_P2
2024/02/28 00:00:43;;;;;;;;;;;18.00;42.80;;;;;;1573725;74;1232;-71
2024/02/28 00:02:45;;;;;;;;;;;18.00;42.80;;;;;;1558065;74;1562;-73
2024/02/28 00:04:47;;;;;;;;;;;18.00;42.80;;;;;;1567182;74;1930;-71
2024/02/28 00:06:49;;;;;;;;;;;17.90;42.80;;;;;;1552787;74;1136;-72
2024/02/28 00:08:53;;;;;;;;;;;18.00;42.80;;;;;;1538240;76;671;-73
2024/02/28 00:10:54;;;;;;;;;;;18.00;42.80;;;;;;1543984;75;2002;-73
2024/02/28 00:12:56;;;;;;;;;;;18.00;42.80;;;;;;1528665;76;657;-70
2024/02/28 00:14:58;;;;;;;;;;;17.90;42.80;;;;;;1538437;76;715;-69
2024/02/28 00:17:00;;;;;;;;;;;18.00;42.80;;;;;;1531751;76;695;-69
2024/02/28 00:19:02;;;;;;;;;;;18.00;42.80;;;;;;1536891;75;786;-70
2024/02/28 00:21:04;;;;;;;;;;;18.00;42.80;;;;;;1536116;75;1144;-73
2024/02/28 00:23:06;;;;;;;;;;;18.00;42.80;;;;;;1541833;76;734;-74
2024/02/28 00:25:09;;;;;;;;;;;18.00;42.80;;;;;;1532050;76;1929;-71
2024/02/28 00:27:11;;;;;;;;;;;18.00;42.80;;;;;;1533306;76;753;-71
2024/02/28 00:29:13;;;;;;;;;;;18.00;42.80;;;;;;1529009;75;659;-72
2024/02/28 00:31:15;;;;;;;;;;;18.00;42.80;;;;;;1540133;76;1104;-70
2024/02/28 00:33:17;;;;;;;;;;;18.00;42.80;;;;;;1548399;76;681;-70
2024/02/28 00:35:19;;;;;;;;;;;17.90;42.80;;;;;;1536076;75;700;-70
2024/02/28 00:37:21;;;;;;;;;;;18.00;42.80;;;;;;1526618;75;733;-70
2024/02/28 00:39:23;;;;;;;;;;;18.00;42.70;;;;;;1533498;75;781;-73
2024/02/28 00:41:25;;;;;;;;;;;18.00;42.80;;;;;;1530070;75;1102;-70
2024/02/28 00:43:27;;;;;;;;;;;18.00;42.80;;;;;;1544159;76;697;-72
2024/02/28 00:45:29;;;;;;;;;;;18.00;42.80;;;;;;1535535;76;1935;-70
2024/02/28 00:47:31;;;;;;;;;;;18.00;42.80;;;;;;1533295;76;773;-71
2024/02/28 00:49:33;;;;;;;;;;;18.00;42.80;;;;;;1542518;76;638;-72
2024/02/28 00:51:37;;;;;;;;;;;18.00;42.80;;;;;;1538071;75;1089;-72
2024/02/28 00:53:39;;;;;;;;;;;18.00;42.80;;;;;;1534015;75;742;-71
2024/02/28 00:55:41;;;;;;;;;;;18.00;42.80;;;;;;1537956;75;657;-71
2024/02/28 00:57:43;;;;;;;;;;;18.00;42.80;;;;;;1539740;76;680;-70
2024/02/28 00:59:45;;;;;;;;;;;18.00;42.80;;;;;;1536621;76;1367;-73
2024/02/28 01:01:48;;;;;;;;;;;18.00;42.80;;;;;;1532955;75;755;-73
2024/02/28 01:03:50;;;;;;;;;;;17.90;42.80;;;;;;1538270;75;647;-73
2024/02/28 01:05:52;;;;;;;;;;;18.00;42.80;;;;;;1543848;76;1935;-72
2024/02/28 01:07:54;;;;;;;;;;;18.00;42.80;;;;;;1551568;75;1002;-71
2024/02/28 01:09:56;;;;;;;;;;;17.90;42.80;;;;;;1560346;75;1197;-71
2024/02/28 01:11:58;;;;;;;;;;;18.00;42.80;;;;;;1555421;75;695;-70
2024/02/28 01:13:59;;;;;;;;;;;17.90;42.80;;;;;;1562047;75;673;-73
2024/02/28 01:16:01;;;;;;;;;;;17.90;42.70;;;;;;1555629;75;671;-71
2024/02/28 01:18:03;;;;;;;;;;;18.00;42.80;;;;;;1563246;74;739;-73
2024/02/28 01:20:07;;;;;;;;;;;18.00;42.80;;;;;;1563027;75;1204;-70
2024/02/28 01:22:08;;;;;;;;;;;18.00;42.80;;;;;;1561110;74;728;-72
2024/02/28 01:24:10;;;;;;;;;;;18.00;42.80;;;;;;1556167;75;685;-72
2024/02/28 01:26:12;;;;;;;;;;;18.00;42.80;;;;;;1546194;75;1937;-74
2024/02/28 01:28:14;;;;;;;;;;;18.00;42.80;;;;;;1549388;74;715;-71
2024/02/28 01:30:16;;;;;;;;;;;18.00;42.80;;;;;;1563711;75;1138;-70
2024/02/28 01:32:18;;;;;;;;;;;17.90;42.80;;;;;;1560369;74;670;-71
2024/02/28 01:34:20;;;;;;;;;;;18.00;42.80;;;;;;1551177;75;594;-72
2024/02/28 01:36:22;;;;;;;;;;;18.00;42.80;;;;;;1559999;75;678;-72
2024/02/28 01:38:23;;;;;;;;;;;18.00;42.80;;;;;;1565124;75;766;-71
2024/02/28 01:40:25;;;;;;;;;;;18.00;42.80;;;;;;1549633;75;1149;-72
2024/02/28 01:42:27;;;;;;;;;;;18.00;42.80;;;;;;1549390;75;694;-74
2024/02/28 01:44:29;;;;;;;;;;;18.00;42.80;;;;;;1561651;75;657;-71
2024/02/28 01:46:31;;;;;;;;;;;17.90;42.80;;;;;;1550443;75;1924;-73
2024/02/28 01:48:33;;;;;;;;;;;17.90;42.80;;;;;;1559546;75;666;-71
2024/02/28 01:50:35;;;;;;;;;;;18.00;42.80;;;;;;1559795;75;1128;-70
2024/02/28 01:52:37;;;;;;;;;;;18.00;42.80;;;;;;1556897;75;617;-73
2024/02/28 01:54:39;;;;;;;;;;;18.00;42.80;;;;;;1556978;75;1352;-71
2024/02/28 01:56:41;;;;;;;;;;;18.00;42.80;;;;;;1562157;75;765;-72
2024/02/28 01:58:44;;;;;;;;;;;18.00;42.80;;;;;;1558364;75;651;-71
2024/02/28 02:00:46;;;;;;;;;;;17.90;42.80;;;;;;1554970;75;1155;-72
2024/02/28 02:02:47;;;;;;;;;;;17.90;42.80;;;;;;1560576;75;740;-73
2024/02/28 02:04:52;;;;;;;;;;;18.00;42.80;;;;;;1557388;74;1953;-73
2024/02/28 02:06:54;;;;;;;;;;;18.00;42.80;;;;;;1537171;75;1554;-72
2024/02/28 02:08:56;;;;;;;;;;;18.00;42.80;;;;;;1552003;75;1104;-72
2024/02/28 02:10:57;;;;;;;;;;;18.00;42.80;;;;;;1550911;75;1208;-72
2024/02/28 02:13:06;;;;;;;;;;;17.90;42.80;;;;;;1561063;75;628;-72
2024/02/28 02:15:07;;;;;;;;;;;18.00;42.80;;;;;;1555224;74;701;-69
2024/02/28 02:17:09;;;;;;;;;;;18.00;42.80;;;;;;1552874;75;726;-74
2024/02/28 02:19:11;;;;;;;;;;;18.00;42.80;;;;;;1555045;75;725;-70
2024/02/28 02:21:14;;;;;;;;;;;18.00;42.80;;;;;;1544832;75;1145;-70
2024/02/28 02:23:15;;;;;;;;;;;17.90;42.80;;;;;;1553478;75;655;-70
2024/02/28 02:25:17;;;;;;;;;;;18.00;42.80;;;;;;1546635;75;1935;-71
2024/02/28 02:27:19;;;;;;;;;;;17.90;42.80;;;;;;1557191;75;666;-73
2024/02/28 02:29:21;;;;;;;;;;;17.90;42.80;;;;;;1557296;74;671;-70
2024/02/28 02:31:23;;;;;;;;;;;18.00;42.80;;;;;;1556700;75;1134;-75
2024/02/28 02:33:25;;;;;;;;;;;18.00;42.80;;;;;;1552321;75;662;-72
2024/02/28 02:35:27;;;;;;;;;;;18.00;42.80;;;;;;1565363;75;788;-74
2024/02/28 02:37:29;;;;;;;;;;;18.00;42.80;;;;;;1552869;75;715;-72
2024/02/28 02:39:31;;;;;;;;;;;18.00;42.80;;;;;;1535985;76;760;-72
2024/02/28 02:41:33;;;;;;;;;;;17.90;42.80;;;;;;1561037;75;1092;-69
2024/02/28 02:43:34;;;;;;;;;;;17.90;42.80;;;;;;1559220;75;564;-69
2024/02/28 02:45:36;;;;;;;;;;;18.00;42.80;;;;;;1554935;75;1946;-72
2024/02/28 02:47:38;;;;;;;;;;;17.90;42.80;;;;;;1550123;75;675;-75
2024/02/28 02:49:40;;;;;;;;;;;18.00;42.80;;;;;;1543984;75;668;-68
2024/02/28 02:51:43;;;;;;;;;;;18.00;42.80;;;;;;1501411;77;1574;-72
2024/02/28 02:53:45;;;;;;;;;;;18.00;42.80;;;;;;1508939;77;791;-69
2024/02/28 02:55:47;;;;;;;;;;;18.00;42.80;;;;;;1510582;77;689;-69
2024/02/28 02:57:48;;;;;;;;;;;18.00;42.80;;;;;;1516116;76;627;-69
2024/02/28 02:59:50;;;;;;;;;;;18.00;42.80;;;;;;1522961;76;1175;-74
2024/02/28 03:01:53;;;;;;;;;;;17.90;42.80;;;;;;1529016;76;736;-70
2024/02/28 03:03:55;;;;;;;;;;;18.00;42.80;;;;;;1510457;77;692;-73
2024/02/28 03:05:56;;;;;;;;;;;18.00;42.80;;;;;;1563019;75;1941;-72
2024/02/28 03:07:58;;;;;;;;;;;18.00;42.80;;;;;;1561734;75;520;-74
2024/02/28 03:10:00;;;;;;;;;;;18.00;42.80;;;;;;1552834;74;1191;-71
2024/02/28 03:12:02;;;;;;;;;;;18.00;42.80;;;;;;1559978;74;694;-74
2024/02/28 03:14:04;;;;;;;;;;;18.00;42.80;;;;;;1546191;74;672;-70
2024/02/28 03:16:06;;;;;;;;;;;18.00;42.80;;;;;;1551761;74;778;-69
2024/02/28 03:18:08;;;;;;;;;;;18.00;42.80;;;;;;1556421;74;721;-70
2024/02/28 03:20:11;;;;;;;;;;;18.00;42.80;;;;;;1558622;74;1157;-72
2024/02/28 03:22:13;;;;;;;;;;;18.00;42.80;;;;;;1564027;74;611;-69
2024/02/28 03:24:15;;;;;;;;;;;18.00;42.70;;;;;;1562856;74;671;-69
2024/02/28 03:26:17;;;;;;;;;;;18.00;42.70;;;;;;1557164;74;1936;-70
2024/02/28 03:28:19;;;;;;;;;;;18.00;42.70;;;;;;1551145;74;547;-70
2024/02/28 03:30:21;;;;;;;;;;;18.00;42.70;;;;;;1564767;74;1124;-72
2024/02/28 03:32:23;;;;;;;;;;;18.00;42.70;;;;;;1564092;74;740;-71
2024/02/28 03:34:25;;;;;;;;;;;18.00;42.80;;;;;;1569333;74;717;-73
2024/02/28 03:36:28;;;;;;;;;;;18.00;42.80;;;;;;1570045;74;646;-72
2024/02/28 03:38:30;;;;;;;;;;;18.00;42.70;;;;;;1569663;74;691;-73
2024/02/28 03:40:31;;;;;;;;;;;18.00;42.70;;;;;;1555590;74;1133;-70
2024/02/28 03:42:33;;;;;;;;;;;18.00;42.70;;;;;;1555804;74;564;-70
2024/02/28 03:44:35;;;;;;;;;;;18.00;42.80;;;;;;1555970;74;799;-72
2024/02/28 03:46:37;;;;;;;;;;;18.00;42.80;;;;;;1558331;74;1941;-70
2024/02/28 03:48:39;;;;;;;;;;;18.00;42.70;;;;;;1564843;74;1319;-71
2024/02/28 03:50:41;;;;;;;;;;;17.90;42.70;;;;;;1551690;74;1144;-72
2024/02/28 03:52:43;;;;;;;;;;;18.00;42.70;;;;;;1560648;74;630;-69
2024/02/28 03:54:45;;;;;;;;;;;18.00;42.70;;;;;;1562403;74;683;-72
2024/02/28 03:56:46;;;;;;;;;;;18.00;42.70;;;;;;1561669;74;688;-72
2024/02/28 03:58:48;;;;;;;;;;;18.00;42.80;;;;;;1552395;74;541;-70
2024/02/28 04:00:50;;;;;;;;;;;18.00;42.70;;;;;;1555380;74;1134;-72
2024/02/28 04:02:52;;;;;;;;;;;18.00;42.80;;;;;;1578572;74;517;-72
2024/02/28 04:04:54;;;;;;;;;;;18.00;42.80;;;;;;1576415;74;685;-70
2024/02/28 04:06:56;;;;;;;;;;;17.90;42.70;;;;;;1551846;74;1929;-71
2024/02/28 04:08:58;;;;;;;;;;;18.00;42.70;;;;;;1545742;74;1024;-72
2024/02/28 04:11:00;;;;;;;;;;;17.90;42.80;;;;;;1554979;74;1217;-70
2024/02/28 04:13:02;;;;;;;;;;;17.90;42.80;;;;;;1561709;74;668;-71
2024/02/28 04:15:04;;;;;;;;;;;18.00;42.80;;;;;;1562760;74;597;-70
2024/02/28 04:17:06;;;;;;;;;;;18.00;42.70;;;;;;1566935;74;583;-70
2024/02/28 04:19:08;;;;;;;;;;;17.90;42.70;;;;;;1570545;74;728;-72
2024/02/28 04:21:10;;;;;;;;;;;17.90;42.70;;;;;;1562703;74;1109;-72
2024/02/28 04:23:11;;;;;;;;;;;18.00;42.80;;;;;;1553624;74;516;-71
2024/02/28 04:25:13;;;;;;;;;;;18.00;42.70;;;;;;1557503;74;719;-72
2024/02/28 04:27:15;;;;;;;;;;;18.00;42.70;;;;;;1560538;74;1936;-76
2024/02/28 04:29:17;;;;;;;;;;;18.00;42.70;;;;;;1556991;74;673;-74
2024/02/28 04:31:19;;;;;;;;;;;18.00;42.70;;;;;;1560291;74;1128;-72
2024/02/28 04:33:21;;;;;;;;;;;17.90;42.70;;;;;;1564981;74;686;-72
2024/02/28 04:35:23;;;;;;;;;;;18.00;42.70;;;;;;1563353;74;522;-71
2024/02/28 04:37:24;;;;;;;;;;;18.00;42.70;;;;;;1554129;74;621;-71
2024/02/28 04:39:26;;;;;;;;;;;18.00;42.70;;;;;;1566294;74;816;-72
2024/02/28 04:41:28;;;;;;;;;;;18.00;42.70;;;;;;1558876;74;1143;-71
2024/02/28 04:43:30;;;;;;;;;;;17.90;42.70;;;;;;1559713;74;1586;-75
2024/02/28 04:45:32;;;;;;;;;;;18.00;42.70;;;;;;1558400;74;634;-71
2024/02/28 04:47:34;;;;;;;;;;;18.00;42.70;;;;;;1555551;74;1926;-70
2024/02/28 04:49:39;;;;;;;;;;;17.90;42.70;;;;;;1562530;74;654;-74
2024/02/28 04:51:41;;;;;;;;;;;18.00;42.70;;;;;;1550725;74;1182;-71
2024/02/28 04:53:42;;;;;;;;;;;18.00;42.60;;;;;;1562795;74;702;-72
2024/02/28 04:55:44;;;;;;;;;;;18.00;42.70;;;;;;1557796;74;673;-71
2024/02/28 04:57:47;;;;;;;;;;;18.00;42.70;;;;;;1561246;74;702;-74
2024/02/28 04:59:49;;;;;;;;;;;18.00;42.70;;;;;;1561398;74;1112;-71
2024/02/28 05:01:51;;;;;;;;;;;18.00;42.70;;;;;;1564844;74;708;-74
2024/02/28 05:03:53;;;;;;;;;;;18.00;42.70;;;;;;1550872;74;752;-69
2024/02/28 05:05:55;;;;;;;;;;;18.00;42.70;;;;;;1556268;74;726;-72
2024/02/28 05:07:57;;;;;;;;;;;18.00;42.80;;;;;;1565622;74;703;-74
2024/02/28 05:09:59;;;;;;;;;;;18.00;42.80;;;;;;1549210;74;1135;-71
2024/02/28 05:12:01;;;;;;;;;;;18.00;42.70;;;;;;1523759;76;742;-73
2024/02/28 05:14:03;;;;;;;;;;;18.00;42.70;;;;;;1530949;76;729;-70
2024/02/28 05:16:05;;;;;;;;;;;17.90;42.80;;;;;;1533364;76;758;-70
2024/02/28 05:18:07;;;;;;;;;;;18.00;42.70;;;;;;1521810;76;727;-72
2024/02/28 05:20:09;;;;;;;;;;;17.90;42.70;;;;;;1524433;76;1171;-71
2024/02/28 05:22:11;;;;;;;;;;;17.90;42.70;;;;;;1529872;76;646;-70
2024/02/28 05:24:13;;;;;;;;;;;18.00;42.70;;;;;;1530566;76;743;-70
2024/02/28 05:26:15;;;;;;;;;;;18.00;42.70;;;;;;1530067;76;1924;-69
2024/02/28 05:28:17;;;;;;;;;;;17.90;42.70;;;;;;1534370;76;720;-72
2024/02/28 05:30:19;;;;;;;;;;;18.00;42.70;;;;;;1527123;76;1150;-73
2024/02/28 05:32:21;;;;;;;;;;;18.00;42.80;;;;;;1526644;76;667;-72
2024/02/28 05:34:23;;;;;;;;;;;18.00;42.70;;;;;;1534656;76;644;-72
2024/02/28 05:36:25;;;;;;;;;;;18.00;42.80;;;;;;1521996;76;688;-70
2024/02/28 05:38:27;;;;;;;;;;;17.90;42.80;;;;;;1522393;76;775;-72
2024/02/28 05:40:29;;;;;;;;;;;18.00;42.80;;;;;;1535019;76;1570;-71
2024/02/28 05:42:31;;;;;;;;;;;18.00;42.70;;;;;;1538544;76;680;-70
2024/02/28 05:44:34;;;;;;;;;;;18.00;42.60;;;;;;1524725;76;706;-74
2024/02/28 05:46:36;;;;;;;;;;;18.00;42.60;;;;;;1538396;76;1928;-77
2024/02/28 05:48:38;;;;;;;;;;;18.00;42.70;;;;;;1527101;76;637;-76
2024/02/28 05:50:40;;;;;;;;;;;18.00;42.70;;;;;;1530891;76;1179;-74
2024/02/28 05:52:42;;;;;;;;;;;17.90;42.80;;;;;;1527736;76;646;-77
2024/02/28 05:54:44;;;;;;;;;;;17.90;42.80;;;;;;1523066;76;693;-76
2024/02/28 05:56:46;;;;;;;;;;;17.90;42.70;;;;;;1530685;76;754;-77
2024/02/28 05:58:48;;;;;;;;;;;17.90;42.70;;;;;;1535511;76;737;-74
2024/02/28 06:00:50;;;;;;;;;;;17.90;42.70;;;;;;1533276;76;1137;-76
2024/02/28 06:02:52;;;;;;;;;;;18.00;42.60;;;;;;1529746;76;706;-74
2024/02/28 06:04:54;;;;;;;;;;;17.90;42.60;;;;;;1529424;76;788;-76
2024/02/28 06:06:55;;;;;;;;;;;18.00;42.60;;;;;;1530602;76;1944;-75
2024/02/28 06:08:57;;;;;;;;;;;18.00;42.60;;;;;;1532370;76;771;-75
2024/02/28 06:11:00;;;;;;;;;;;18.00;42.60;;;;;;1549726;75;1112;-75
2024/02/28 06:13:02;;;;;;;;;;;17.90;42.60;;;;;;1574471;74;726;-76
2024/02/28 06:15:04;;;;;;;;;;;18.00;42.60;;;;;;1567167;74;721;-75
2024/02/28 06:17:06;;;;;;;;;;;18.00;42.60;;;;;;1561889;75;733;-73
2024/02/28 06:19:08;;;;;;;;;;;18.00;42.50;;;;;;1571160;75;594;-74
2024/02/28 06:21:10;;;;;;;;;;;18.00;42.40;;;;;;1574776;75;1186;-76
2024/02/28 06:23:12;;;;;;;;;;;18.00;42.40;;;;;;1568445;75;680;-73
2024/02/28 06:25:18;;;;;;;;;;;18.00;42.40;;;;;;1560067;74;729;-77
2024/02/28 06:27:17;;;;;;;;;;;17.90;42.40;;;;;;1561066;75;1909;-75
2024/02/28 06:29:21;;;;;;;;;;;18.00;42.30;;;;;;1565405;75;945;-78
2024/02/28 06:31:23;;;;;;;;;;;17.90;42.30;;;;;;1570174;75;1142;-80
2024/02/28 06:33:25;;;;;;;;;;;18.00;42.40;;;;;;1565699;75;706;-74
2024/02/28 06:35:27;;;;;;;;;;;17.90;42.30;;;;;;1553931;75;785;-75
2024/02/28 06:37:29;;;;;;;;;;;17.90;42.30;;;;;;1572610;75;1604;-73
2024/02/28 06:39:31;;;;;;;;;;;18.00;42.30;;;;;;1569187;75;715;-75
2024/02/28 06:41:33;;;;;;;;;;;18.00;42.30;;;;;;1566199;74;1129;-74
2024/02/28 06:43:38;;;;;;;;;;;18.00;42.20;;;;;;1560638;75;719;-74
2024/02/28 06:45:40;;;;;;;;;;;17.90;42.20;;;;;;1565706;74;745;-79
2024/02/28 06:47:43;;;;;;;;;;;17.90;42.20;;;;;;1555946;75;1963;-74
2024/02/28 06:49:45;;;;;;;;;;;18.00;42.30;;;;;;1566518;75;1189;-77
2024/02/28 06:51:46;;;;;;;;;;;17.90;42.20;;;;;;1570037;75;716;-78
2024/02/28 06:53:48;;;;;;;;;;;17.90;42.20;;;;;;1565901;75;723;-73
2024/02/28 06:55:50;;;;;;;;;;;17.90;42.20;;;;;;1557436;74;662;-76
2024/02/28 06:57:52;;;;;;;;;;;17.90;42.20;;;;;;1558763;75;661;-75
2024/02/28 06:59:54;;;;;;;;;;;18.00;42.30;;;;;;1561817;75;1154;-74
2024/02/28 07:01:56;;;;;;;;;;;17.90;41.30;;;;;;1564437;75;694;-76
2024/02/28 07:03:58;;;;;;;;;;;17.80;41.20;;;;;;1569199;75;665;-74
2024/02/28 07:05:59;;;;;;;;;;;17.80;41.60;;;;;;1568140;75;751;-76
2024/02/28 07:08:02;;;;;;;;;;;17.80;41.90;;;;;;1555638;75;1950;-73
2024/02/28 07:10:04;;;;;;;;;;;17.90;42.20;;;;;;1563033;75;1154;-74
2024/02/28 07:12:06;;;;;;;;;;;17.80;42.10;;;;;;1569586;75;1077;-79
2024/02/28 07:14:08;;;;;;;;;;;17.80;42.10;;;;;;1566690;75;732;-73
2024/02/28 07:16:10;;;;;;;;;;;17.90;42.30;;;;;;1560317;74;717;-76
2024/02/28 07:18:12;;;;;;;;;;;17.90;42.30;;;;;;1560264;75;677;-75
2024/02/28 07:20:14;;;;;;;;;;;17.90;42.30;;;;;;1563304;75;1194;-80
2024/02/28 07:22:16;;;;;;;;;;;17.90;42.30;;;;;;1571163;75;593;-75
2024/02/28 07:24:17;;;;;;;;;;;17.90;42.30;;;;;;1564220;74;705;-75
2024/02/28 07:26:19;;;;;;;;;;;17.90;42.30;;;;;;1564665;75;671;-76
2024/02/28 07:28:21;;;;;;;;;;;17.90;42.40;;;;;;1568084;75;1939;-78
2024/02/28 07:30:23;;;;;;;;;;;17.90;42.40;;;;;;1563251;75;1147;-79
2024/02/28 07:32:25;;;;;;;;;;;17.90;42.40;;;;;;1565271;75;1341;-77
2024/02/28 07:34:27;;;;;;;;;;;17.90;42.40;;;;;;1560341;75;691;-78
2024/02/28 07:36:29;;;;;;;;;;;17.90;42.30;;;;;;1567185;75;723;-75
2024/02/28 07:38:30;;;;;;;;;;;17.90;42.40;;;;;;1569407;74;715;-75
2024/02/28 07:40:32;;;;;;;;;;;17.90;42.40;;;;;;1568935;75;1165;-75
2024/02/28 07:42:34;;;;;;;;;;;17.90;42.40;;;;;;1569733;75;689;-77
2024/02/28 07:44:36;;;;;;;;;;;18.00;42.40;;;;;;1557705;75;710;-79
2024/02/28 07:46:38;;;;;;;;;;;17.90;42.40;;;;;;1562996;75;795;-80
2024/02/28 07:48:40;;;;;;;;;;;17.90;42.50;;;;;;1568831;75;1938;-74
2024/02/28 07:50:42;;;;;;;;;;;17.90;42.50;;;;;;1570187;75;1172;-75
2024/02/28 07:52:45;;;;;;;;;;;17.90;42.50;;;;;;1564349;75;732;-73
2024/02/28 07:54:47;;;;;;;;;;;17.90;42.40;;;;;;1571143;75;697;-77
2024/02/28 07:56:49;;;;;;;;;;;17.90;42.50;;;;;;1564517;75;760;-74
2024/02/28 07:58:51;;;;;;;;;;;17.90;42.60;;;;;;1554180;75;737;-78
2024/02/28 08:00:53;;;;;;;;;;;17.90;42.50;;;;;;1569993;75;1139;-75
2024/02/28 08:02:55;;;;;;;;;;;17.90;42.60;;;;;;1566668;75;739;-73
2024/02/28 08:04:57;;;;;;;;;;;17.90;42.60;;;;;;1559030;75;664;-75
2024/02/28 08:06:58;;;;;;;;;;;17.90;42.60;;;;;;1564783;75;771;-75
2024/02/28 08:09:00;;;;;;;;;;;17.90;42.50;;;;;;1570710;75;1928;-78
2024/02/28 08:11:03;;;;;;;;;;;17.90;42.50;;;;;;1565870;75;1133;-80
2024/02/28 08:13:05;;;;;;;;;;;18.00;42.50;;;;;;1575699;75;801;-75
2024/02/28 08:15:07;;;;;;;;;;;17.90;42.50;;;;;;1561752;75;759;-77
2024/02/28 08:17:09;;;;;;;;;;;17.90;42.50;;;;;;1561555;75;745;-82
2024/02/28 08:19:11;;;;;;;;;;;17.90;42.50;;;;;;1558982;75;714;-76
2024/02/28 08:21:13;;;;;;;;;;;17.90;42.50;;;;;;1546096;74;1161;-74
2024/02/28 08:23:14;;;;;;;;;;;17.90;42.50;;;;;;1559942;75;702;-71
2024/02/28 08:25:16;;;;;;;;;;;17.90;42.60;;;;;;1572231;75;667;-74
2024/02/28 08:27:19;;;;;;;;;;;17.90;42.50;;;;;;1548860;75;1940;-75
2024/02/28 08:29:21;;;;;;;;;;;18.00;42.50;;;;;;1545518;74;1541;-79
2024/02/28 08:31:22;;;;;;;;;;;17.90;42.50;;;;;;1551642;75;1147;-76
2024/02/28 08:33:24;;;;;;;;;;;18.00;42.50;;;;;;1554714;75;676;-77
2024/02/28 08:35:26;;;;;;;;;;;18.00;42.50;;;;;;1554930;75;692;-76
2024/02/28 08:37:28;;;;;;;;;;;17.80;42.40;;;;;;1549403;75;819;-80
2024/02/28 08:39:30;;;;;;;;;;;17.90;42.50;;;;;;1548695;75;727;-78
2024/02/28 08:41:34;;;;;;;;;;;17.90;42.50;;;;;;1557463;75;1106;-73
2024/02/28 08:43:39;;;;;;;;;;;17.90;42.60;;;;;;1549747;75;707;-75
2024/02/28 08:45:41;;;;;;;;;;;18.00;42.50;;;;;;1560647;75;749;-80
2024/02/28 08:47:44;;;;;;;;;;;17.90;42.60;;;;;;1555779;75;1942;-73
2024/02/28 08:49:46;;;;;;;;;;;17.90;42.60;;;;;;1563745;75;1179;-75
2024/02/28 08:51:48;;;;;;;;;;;17.90;42.50;;;;;;1561313;75;750;-75
2024/02/28 08:53:52;;;;;;;;;;;17.80;42.40;;;;;;1565564;75;885;-80
2024/02/28 08:55:53;;;;;;;;;;;17.90;42.60;;;;;;1555550;74;764;-81
2024/02/28 08:57:55;;;;;;;;;;;17.90;42.60;;;;;;1501076;77;757;-79
2024/02/28 08:59:57;;;;;;;;;;;17.80;42.40;;;;;;1514242;78;1131;-76
2024/02/28 09:01:59;;;;;;;;;;;18.00;42.50;;;;;;1508197;77;731;-75
2024/02/28 09:04:01;;;;;;;;;;;17.90;42.60;;;;;;1508648;78;745;-79
2024/02/28 09:06:03;;;;;;;;;;;18.00;42.60;;;;;;1509711;78;712;-74
2024/02/28 09:08:05;;;;;;;;;;;17.90;42.40;;;;;;1512028;78;1930;-76
2024/02/28 09:10:07;;;;;;;;;;;17.90;42.10;;;;;;1521905;76;1137;-77
2024/02/28 09:12:09;;;;;;;;;;;17.90;42.30;;;;;;1506814;77;1108;-78
2024/02/28 09:14:11;;;;;;;;;;;17.90;42.40;;;;;;1499974;79;602;-81
2024/02/28 09:16:13;;;;;;;;;;;17.90;42.50;;;;;;1494233;78;709;-76
2024/02/28 09:18:14;;;;;;;;;;;17.90;42.60;;;;;;1493950;78;946;-76
2024/02/28 09:20:17;;;;;;;;;;;17.90;42.60;;;;;;1504945;78;1203;-77
2024/02/28 09:22:21;;;;;;;;;;;17.90;42.50;;;;;;1497992;78;707;-75
2024/02/28 09:24:22;;;;;;;;;;;17.90;42.60;;;;;;1498577;78;1156;-77
2024/02/28 09:26:24;;;;;;;;;;;17.90;42.50;;;;;;1548956;75;1748;-77
2024/02/28 09:28:26;;;;;;;;;;;17.90;42.60;;;;;;1565433;75;1933;-73
2024/02/28 09:30:27;;;;;;;;;;;17.90;42.60;;;;;;1498123;77;1145;-74
2024/02/28 09:32:29;;;;;;;;;;;17.90;42.60;;;;;;1521113;77;744;-77
2024/02/28 09:34:31;;;;;;;;;;;17.90;42.60;;;;;;1503560;78;755;-74
2024/02/28 09:36:34;;;;;;;;;;;17.90;42.60;;;;;;1501593;78;737;-73
2024/02/28 09:38:36;;;;;;;;;;;17.90;42.60;;;;;;1503683;78;676;-78
2024/02/28 09:40:38;;;;;;;;;;;17.90;42.60;;;;;;1497215;78;1121;-74
2024/02/28 09:42:40;;;;;;;;;;;17.90;42.60;;;;;;1504599;79;773;-75
2024/02/28 09:44:42;;;;;;;;;;;17.90;42.60;;;;;;1495692;79;720;-73
2024/02/28 09:46:44;;;;;;;;;;;17.90;42.60;;;;;;1496710;78;809;-80
2024/02/28 09:48:47;;;;;;;;;;;17.90;42.60;;;;;;1500572;78;1929;-78
2024/02/28 09:50:49;;;;;;;;;;;17.90;42.70;;;;;;1498049;79;1981;-75
2024/02/28 09:52:51;;;;;;;;;;;17.90;42.70;;;;;;1515620;77;777;-75
2024/02/28 09:54:53;;;;;;;;;;;17.90;42.70;;;;;;1507872;79;677;-75
2024/02/28 09:56:55;;;;;;;;;;;17.90;42.60;;;;;;1495671;78;617;-78
2024/02/28 09:58:56;;;;;;;;;;;17.90;42.70;;;;;;1553474;75;737;-77
2024/02/28 10:00:59;;;;;;;;;;;17.90;42.60;;;;;;1549611;75;1109;-79
2024/02/28 10:03:02;;;;;;;;;;;17.90;42.60;;;;;;1555377;75;708;-74
2024/02/28 10:05:04;;;;;;;;;;;17.90;42.70;;;;;;1546656;75;674;-80
2024/02/28 10:07:14;;;;;;;;;;;17.90;42.70;;;;;;1545862;75;741;-75
2024/02/28 10:09:16;;;;;;;;;;;17.90;42.70;;;;;;1497756;78;1931;-74
2024/02/28 10:11:21;;;;;;;;;;;17.90;42.70;;;;;;1527878;77;1134;-74
2024/02/28 10:13:23;;;;;;;;;;;17.90;42.70;;;;;;1537374;76;1297;-76
2024/02/28 10:15:28;;;;;;;;;;;17.90;42.80;;;;;;1496447;77;695;-81
2024/02/28 10:17:30;;;;;;;;;;;17.90;42.70;;;;;;1498576;78;773;-74
2024/02/28 10:19:32;;;;;;;;;;;17.90;42.70;;;;;;1504433;78;625;-76
2024/02/28 10:21:34;;;;;;;;;;;17.90;42.70;;;;;;1512694;78;1436;-78
2024/02/28 10:23:37;;;;;;;;;;;17.90;42.70;;;;;;1515030;78;723;-81
2024/02/28 10:25:48;;;;;;;;;;;17.90;42.70;;;;;;1511568;78;788;-83
2024/02/28 10:27:49;;;;;;;;;;;17.90;42.70;;;;;;1512999;78;698;-78
2024/02/28 10:29:51;;;;;;;;;;;17.90;42.70;;;;;;1511345;78;1946;-74
2024/02/28 10:31:53;;;;;;;;;;;17.90;42.70;;;;;;1497599;78;679;-82
2024/02/28 10:33:55;;;;;;;;;;;17.90;42.80;;;;;;1527652;76;718;-76
2024/02/28 10:35:57;;;;;;;;;;;17.80;42.60;;;;;;1526014;76;705;-80
2024/02/28 10:37:59;;;;;;;;;;;17.90;42.70;;;;;;1512120;76;731;-81
2024/02/28 10:40:01;;;;;;;;;;;17.90;42.70;;;;;;1509572;78;1133;-76
2024/02/28 10:42:03;;;;;;;;;;;17.90;42.80;;;;;;1507490;77;823;-76
2024/02/28 10:44:05;;;;;;;;;;;17.90;42.80;;;;;;1504731;78;601;-72
2024/02/28 10:46:08;;;;;;;;;;;17.90;40.70;;;;;;1518394;78;693;-80
2024/02/28 10:48:09;;;;;;;;;;;17.80;41.70;;;;;;1515576;78;1917;-75
2024/02/28 10:50:11;;;;;;;;;;;17.80;42.20;;;;;;1511936;77;1126;-75
2024/02/28 10:52:13;;;;;;;;;;;17.80;42.40;;;;;;1518765;78;603;-75
2024/02/28 10:54:15;;;;;;;;;;;17.80;42.50;;;;;;1519129;78;755;-74
2024/02/28 10:56:17;;;;;;;;;;;17.80;42.50;;;;;;1519298;78;688;-75
2024/02/28 10:58:19;;;;;;;;;;;17.80;42.60;;;;;;1506529;78;755;-76
2024/02/28 11:00:21;;;;;;;;;;;17.80;42.60;;;;;;1509910;78;1164;-75
2024/02/28 11:02:23;;;;;;;;;;;17.80;42.60;;;;;;1514250;78;880;-75
2024/02/28 11:04:25;;;;;;;;;;;17.80;42.60;;;;;;1516291;78;624;-78
2024/02/28 11:06:27;;;;;;;;;;;17.80;42.60;;;;;;1511193;78;726;-75
2024/02/28 11:08:31;;;;;;;;;;;17.90;42.80;;;;;;1515617;78;1929;-77
2024/02/28 11:10:33;;;;;;;;;;;17.80;42.60;;;;;;1511594;78;1137;-75
2024/02/28 11:12:36;;;;;;;;;;;17.80;42.60;;;;;;1516285;78;678;-76
2024/02/28 11:14:38;;;;;;;;;;;17.90;42.30;;;;;;1504616;77;1098;-75
2024/02/28 11:16:44;;;;;;;;;;;17.80;42.50;;;;;;1511918;78;854;-73
2024/02/28 11:18:50;;;;;;;;;;;17.80;42.50;;;;;;1501429;78;1359;-77
2024/02/28 11:20:51;;;;;;;;;;;17.80;42.60;;;;;;1509658;78;1148;-75
2024/02/28 11:22:55;;;;;;;;;;;17.90;42.80;;;;;;1500570;78;730;-74
2024/02/28 11:24:57;;;;;;;;;;;17.80;42.60;;;;;;1511660;78;1900;-79
2024/02/28 11:26:59;;;;;;;;;;;17.80;42.60;;;;;;1508839;78;683;-81
2024/02/28 11:29:00;;;;;;;;;;;17.80;42.60;;;;;;1504223;78;1919;-79
2024/02/28 11:31:02;;;;;;;;;;;17.80;42.60;;;;;;1502025;78;1130;-77
2024/02/28 11:33:05;;;;;;;;;;;17.90;42.80;;;;;;1498880;78;741;-74
2024/02/28 11:35:07;;;;;;;;;;;17.80;42.60;;;;;;1511287;78;657;-75
2024/02/28 11:37:11;;;;;;;;;;;17.90;42.80;;;;;;1502580;78;693;-75
2024/02/28 11:39:13;;;;;;;;;;;17.80;42.70;;;;;;1506104;78;706;-81
2024/02/28 11:41:15;;;;;;;;;;;17.90;42.80;;;;;;1505511;78;1118;-74
2024/02/28 11:43:18;;;;;;;;;;;17.80;42.60;;;;;;1483959;78;993;-81
2024/02/28 11:45:20;;;;;;;;;;;17.90;42.80;;;;;;1508093;78;699;-82
2024/02/28 11:47:22;;;;;;;;;;;17.90;42.80;;;;;;1507054;78;694;-75
2024/02/28 11:49:24;;;;;;;;;;;17.90;42.80;;;;;;1507896;78;1928;-76
2024/02/28 11:51:26;;;;;;;;;;;17.80;42.70;;;;;;1493611;78;1186;-80
2024/02/28 11:53:28;;;;;;;;;;;17.90;42.80;;;;;;1507550;78;694;-83
2024/02/28 11:55:30;;;;;;;;;;;17.90;42.80;;;;;;1508317;77;700;-74
2024/02/28 11:57:33;;;;;;;;;;;17.80;42.70;;;;;;1505490;78;766;-75
2024/02/28 11:59:35;;;;;;;;;;;17.90;42.80;;;;;;1505836;78;739;-81
2024/02/28 12:01:38;;;;;;;;;;;17.90;42.80;;;;;;1504881;78;1149;-81
2024/02/28 12:03:41;;;;;;;;;;;17.90;42.80;;;;;;1503595;78;684;-76
2024/02/28 12:05:44;;;;;;;;;;;17.90;42.80;;;;;;1507765;78;805;-77
2024/02/28 12:07:46;;;;;;;;;;;17.90;42.80;;;;;;1500345;78;715;-77